Time;durP1;ratioP1;P1;durP2;ratioP2;P2;SDS_P1;SDS_P2;PMS_P1;PMS_P2;Temp;Humidity;BMP_temperature;BMP_pressure;BME280_temperature;BME280_humidity;BME280_pressure;Samples;Min_cycle;Max_cycle;Signal;HPM_P1;HPM_P2
2021/04/12 00:00:19;;;;;;;12.23;7.10;;;;;;;8.98;53.35;100759.31;5038979;28;20091;-66
2021/04/12 00:02:50;;;;;;;11.82;6.38;;;;;;;9.05;53.69;100751.72;5041174;28;20026;-67
2021/04/12 00:05:21;;;;;;;9.05;6.28;;;;;;;9.19;53.23;100744.31;5043138;28;20239;-66
2021/04/12 00:07:53;;;;;;;15.52;7.13;;;;;;;9.38;53.14;100748.94;5041701;28;20064;-67
2021/04/12 00:10:40;;;;;;;12.40;6.55;;;;;;;9.45;52.84;100744.78;5041460;28;20032;-67
2021/04/12 00:13:37;;;;;;;17.90;6.70;;;;;;;9.61;52.25;100736.41;5023814;28;20041;-67
2021/04/12 00:16:34;;;;;;;11.85;6.90;;;;;;;9.55;52.35;100737.75;5041321;28;20053;-67
2021/04/12 00:19:09;;;;;;;11.80;6.57;;;;;;;9.57;52.54;100735.81;4995301;28;20038;-67
2021/04/12 00:21:52;;;;;;;15.10;6.82;;;;;;;9.53;52.42;100747.63;5024145;28;20335;-67
2021/04/12 00:24:27;;;;;;;22.38;9.50;;;;;;;9.50;52.19;100742.59;5023286;28;20034;-67
2021/04/12 00:27:18;;;;;;;21.63;9.68;;;;;;;9.50;51.68;100736.47;5041518;28;20045;-67
2021/04/12 00:29:56;;;;;;;27.95;10.10;;;;;;;9.51;52.27;100741.63;5018404;28;20045;-67
2021/04/12 00:32:37;;;;;;;24.52;9.82;;;;;;;9.31;51.92;100726.59;5023611;28;20045;-67
2021/04/12 00:35:07;;;;;;;22.88;9.18;;;;;;;9.23;52.91;100739.63;5024032;28;20087;-67
2021/04/12 00:37:53;;;;;;;17.30;7.63;;;;;;;9.21;53.33;100731.81;5029391;28;20323;-67
2021/04/12 00:41:01;;;;;;;14.48;7.30;;;;;;;9.26;53.87;100726.16;5022725;28;20032;-67
2021/04/12 00:43:32;;;;;;;18.92;7.43;;;;;;;9.23;53.77;100731.69;5034354;28;20048;-67
2021/04/12 00:46:22;;;;;;;11.50;6.72;;;;;;;9.05;54.31;100723.50;5038613;28;20327;-67
2021/04/12 00:48:50;;;;;;;11.60;6.10;;;;;;;8.89;54.87;100720.47;5023873;28;20025;-67
2021/04/12 00:51:45;;;;;;;13.25;7.13;;;;;;;8.85;55.61;100714.59;5023119;28;20311;-67
2021/04/12 00:54:51;;;;;;;15.43;7.20;;;;;;;8.80;56.20;100711.50;5028400;28;20398;-66
2021/04/12 00:57:25;;;;;;;13.85;7.65;;;;;;;8.78;55.88;100707.31;5024563;28;20037;-67
2021/04/12 00:59:54;;;;;;;;;;;;;;;8.87;55.28;100698.63;5039205;28;20036;-67
2021/04/12 01:02:38;;;;;;;18.30;8.23;;;;;;;8.89;54.56;100709.91;5028130;28;20110;-66
2021/04/12 01:05:21;;;;;;;16.10;8.60;;;;;;;8.79;55.03;100716.91;5027579;28;20033;-66
2021/04/12 01:08:08;;;;;;;14.50;8.13;;;;;;;8.83;55.09;100716.53;5037970;28;20034;-67
2021/04/12 01:10:50;;;;;;;15.35;8.32;;;;;;;8.89;54.00;100713.38;5033884;28;20057;-67
2021/04/12 01:13:47;;;;;;;19.85;8.63;;;;;;;8.85;54.27;100713.78;5030268;28;20063;-67
2021/04/12 01:16:36;;;;;;;21.60;9.93;;;;;;;8.85;53.76;100708.47;5004960;28;20050;-67
2021/04/12 01:19:58;;;;;;;15.52;9.32;;;;;;;8.81;53.70;100712.34;5039501;28;20060;-67
2021/04/12 01:22:45;;;;;;;17.67;8.80;;;;;;;8.74;54.01;100706.72;5031376;28;20060;-67
2021/04/12 01:25:38;;;;;;;23.02;9.32;;;;;;;8.74;54.12;100701.44;5025676;28;20040;-67
2021/04/12 01:28:38;;;;;;;14.95;8.75;;;;;;;8.55;54.40;100702.13;5022878;28;20046;-67
2021/04/12 01:31:28;;;;;;;18.33;9.00;;;;;;;8.51;54.44;100702.50;5011232;28;20061;-67
2021/04/12 01:34:27;;;;;;;17.20;8.88;;;;;;;8.47;54.82;100696.63;5038036;28;20042;-67
2021/04/12 01:36:53;;;;;;;18.50;8.45;;;;;;;8.48;55.15;100689.56;5022678;28;20076;-67
2021/04/12 01:39:37;;;;;;;21.38;9.10;;;;;;;8.45;55.38;100692.44;5023557;28;20038;-67
2021/04/12 01:42:31;;;;;;;20.20;9.35;;;;;;;8.39;55.38;100699.06;5024308;28;20045;-67
2021/04/12 01:45:15;;;;;;;18.65;9.55;;;;;;;8.34;55.05;100692.50;5043663;28;20319;-67
2021/04/12 01:47:50;;;;;;;18.08;8.93;;;;;;;8.15;55.11;100664.91;5043815;28;20041;-67
2021/04/12 01:50:20;;;;;;;19.73;9.07;;;;;;;8.37;55.54;100697.50;5042496;28;20044;-67
2021/04/12 01:52:58;;;;;;;20.95;8.38;;;;;;;8.26;55.97;100695.69;5043236;28;20057;-67
2021/04/12 01:55:35;;;;;;;22.98;9.50;;;;;;;8.18;55.88;100687.56;5039295;28;20071;-66
2021/04/12 01:58:37;;;;;;;22.27;9.43;;;;;;;8.14;56.69;100689.59;5026413;28;20038;-67
2021/04/12 02:01:36;;;;;;;27.25;10.02;;;;;;;8.25;56.27;100688.72;5026031;28;20056;-66
2021/04/12 02:04:19;;;;;;;26.02;10.60;;;;;;;8.35;56.17;100678.34;5026153;28;20053;-66
2021/04/12 02:07:05;;;;;;;18.08;9.60;;;;;;;8.36;55.15;100680.00;5026366;28;20040;-67
2021/04/12 02:10:11;;;;;;;19.48;9.32;;;;;;;8.33;55.58;100675.81;5031462;28;20025;-66
2021/04/12 02:13:10;;;;;;;17.90;9.10;;;;;;;8.25;56.06;100694.00;5044092;28;20057;-67
2021/04/12 02:15:49;;;;;;;20.48;9.65;;;;;;;8.21;56.84;100695.22;5040617;28;20026;-67
2021/04/12 02:18:41;;;;;;;27.92;12.32;;;;;;;8.10;56.96;100688.16;5042841;28;20092;-66
2021/04/12 02:21:25;;;;;;;30.45;12.38;;;;;;;8.09;56.98;100686.50;5043608;28;20038;-67
2021/04/12 02:24:13;;;;;;;28.48;14.15;;;;;;;8.14;57.82;100689.59;5044992;28;20025;-67
2021/04/12 02:27:00;;;;;;;28.17;13.85;;;;;;;8.34;56.73;100688.03;5044764;28;20076;-67
2021/04/12 02:29:43;;;;;;;38.50;13.52;;;;;;;8.27;57.48;100687.66;5044928;28;20037;-67
2021/04/12 02:32:08;;;;;;;26.30;14.30;;;;;;;8.16;57.50;100690.31;5044729;28;20135;-66
2021/04/12 02:35:11;;;;;;;27.83;13.50;;;;;;;8.16;57.50;100684.19;5042089;28;20041;-66
2021/04/12 02:37:55;;;;;;;21.95;11.85;;;;;;;8.05;56.53;100676.31;5040459;28;20037;-67
2021/04/12 02:40:36;;;;;;;26.77;12.05;;;;;;;7.92;56.78;100679.94;5025565;28;20030;-67
2021/04/12 02:43:24;;;;;;;18.45;10.45;;;;;;;7.91;56.62;100674.78;5043089;28;20065;-67
2021/04/12 02:46:41;;;;;;;18.80;9.98;;;;;;;7.66;57.61;100676.72;5016047;28;20227;-67
2021/04/12 02:49:18;;;;;;;20.10;10.98;;;;;;;7.58;58.03;100681.75;5035641;28;20343;-67
2021/04/12 02:51:57;;;;;;;21.70;9.48;;;;;;;7.57;57.76;100673.97;5042293;28;20037;-67
2021/04/12 02:54:41;;;;;;;27.20;11.65;;;;;;;7.63;58.11;100670.84;5026583;28;20042;-67
2021/04/12 02:57:06;;;;;;;22.10;10.65;;;;;;;7.69;57.30;100660.66;5025465;28;20048;-67
2021/04/12 02:59:52;;;;;;;26.15;13.05;;;;;;;7.60;58.13;100660.53;5024317;28;20025;-67
2021/04/12 03:02:33;;;;;;;38.85;15.85;;;;;;;7.58;58.04;100660.66;5029281;28;20112;-67
2021/04/12 03:05:16;;;;;;;35.80;15.32;;;;;;;7.62;57.99;100653.34;5043601;28;20045;-66
2021/04/12 03:07:56;;;;;;;25.17;12.38;;;;;;;7.60;57.16;100663.19;5041380;28;20041;-67
2021/04/12 03:10:39;;;;;;;32.95;14.35;;;;;;;7.50;58.29;100665.69;5041525;28;20029;-67
2021/04/12 03:13:37;;;;;;;21.10;11.00;;;;;;;7.55;57.77;100657.44;5027861;28;20042;-67
2021/04/12 03:16:47;;;;;;;24.63;12.18;;;;;;;7.43;58.42;100675.03;5023196;28;20112;-67
2021/04/12 03:19:36;;;;;;;87.18;24.77;;;;;;;7.47;58.59;100671.22;5010201;28;20342;-67
2021/04/12 03:22:26;;;;;;;32.40;13.57;;;;;;;7.50;57.38;100664.88;5023804;28;20034;-67
2021/04/12 03:25:20;;;;;;;113.95;39.80;;;;;;;7.61;58.41;100662.22;5024622;28;20040;-66
2021/04/12 03:28:12;;;;;;;55.88;18.88;;;;;;;7.65;57.50;100653.97;5044052;28;20037;-66
2021/04/12 03:31:03;;;;;;;29.58;14.48;;;;;;;7.66;58.01;100653.00;5042098;28;20037;-66
2021/04/12 03:33:59;;;;;;;35.47;16.05;;;;;;;7.62;57.87;100656.84;5042140;28;20120;-66
2021/04/12 03:36:45;;;;;;;65.63;26.88;;;;;;;7.60;57.67;100658.75;5039899;28;20037;-67
2021/04/12 03:39:16;;;;;;;41.25;18.17;;;;;;;7.57;57.67;100661.63;5025231;28;20144;-66
2021/04/12 03:41:47;;;;;;;42.90;19.58;;;;;;;7.57;57.53;100663.44;5024378;28;20048;-67
2021/04/12 03:44:27;;;;;;;58.13;24.38;;;;;;;7.52;58.06;100663.78;5026231;28;20044;-67
2021/04/12 03:46:58;;;;;;;40.58;18.45;;;;;;;7.47;56.98;100662.47;5043865;28;20045;-66
2021/04/12 03:49:47;;;;;;;101.28;30.05;;;;;;;7.49;57.71;100664.03;5042036;28;20033;-66
2021/04/12 03:52:20;;;;;;;100.35;25.42;;;;;;;7.52;57.63;100657.69;5034116;28;20046;-67
2021/04/12 03:55:04;;;;;;;77.27;24.60;;;;;;;7.46;58.22;100653.72;5023345;28;20037;-67
2021/04/12 03:57:48;;;;;;;67.03;22.57;;;;;;;7.38;58.64;100665.81;5038584;28;20091;-67
2021/04/12 04:00:54;;;;;;;50.67;21.33;;;;;;;7.31;58.25;100662.81;5040847;28;20467;-67
2021/04/12 04:03:43;;;;;;;35.17;16.42;;;;;;;7.47;57.51;100660.66;5042418;28;20041;-68
2021/04/12 04:06:48;;;;;;;33.45;14.30;;;;;;;7.54;57.54;100669.78;5041949;28;20056;-67
2021/04/12 04:09:41;;;;;;;44.00;16.55;;;;;;;7.53;57.68;100662.00;5022187;28;20220;-67
2021/04/12 04:12:26;;;;;;;71.05;25.23;;;;;;;7.58;57.95;100647.50;5033638;28;20064;-67
2021/04/12 04:15:12;;;;;;;42.92;16.45;;;;;;;7.74;57.92;100659.47;5022984;28;20038;-67
2021/04/12 04:18:06;;;;;;;31.63;14.13;;;;;;;7.70;57.38;100661.50;5023719;28;20049;-67
2021/04/12 04:21:01;;;;;;;36.67;14.70;;;;;;;7.75;57.62;100671.69;5023996;28;20316;-67
2021/04/12 04:23:35;;;;;;;;;;;;;;;7.67;58.85;100678.41;5027570;28;20064;-67
2021/04/12 04:26:09;;;;;;;23.25;11.52;;;;;;;7.46;58.88;100684.50;5042576;28;19955;-67
2021/04/12 04:29:06;;;;;;;25.00;9.85;;;;;;;7.33;58.05;100674.91;5035883;28;20049;-67
2021/04/12 04:31:41;;;;;;;23.75;11.85;;;;;;;7.05;58.38;100681.44;5035846;28;20156;-66
2021/04/12 04:34:25;;;;;;;20.90;11.38;;;;;;;6.91;60.21;100681.63;5037809;28;20025;-67
2021/04/12 04:37:21;;;;;;;27.85;12.70;;;;;;;7.14;59.21;100687.78;5038426;28;20037;-67
2021/04/12 04:40:02;;;;;;;23.83;12.05;;;;;;;7.35;59.36;100687.97;5039625;28;20243;-66
2021/04/12 04:42:46;;;;;;;24.77;13.63;;;;;;;7.46;59.13;100681.88;5041616;28;20089;-66
2021/04/12 04:45:48;;;;;;;29.05;13.38;;;;;;;7.52;59.22;100684.03;5041812;28;20074;-67
2021/04/12 04:48:35;;;;;;;21.40;11.23;;;;;;;7.38;60.04;100682.47;5027953;28;20389;-67
2021/04/12 04:51:07;;;;;;;27.55;12.55;;;;;;;7.55;59.18;100686.44;5022197;28;20402;-67
2021/04/12 04:54:03;;;;;;;45.67;17.20;;;;;;;7.64;59.30;100683.06;5023584;28;20026;-67
2021/04/12 04:56:37;;;;;;;50.05;18.15;;;;;;;7.54;59.99;100685.59;5023468;28;20038;-67
2021/04/12 04:59:09;;;;;;;44.95;19.08;;;;;;;7.60;60.46;100679.00;5022636;28;20021;-66
2021/04/12 05:01:34;;;;;;;44.92;17.67;;;;;;;7.74;59.68;100672.63;5043111;28;20223;-66
2021/04/12 05:04:18;;;;;;;46.15;18.30;;;;;;;7.91;60.65;100690.59;5042406;28;20025;-67
2021/04/12 05:07:05;;;;;;;41.35;17.23;;;;;;;8.05;59.81;100687.69;5024984;28;20379;-67
2021/04/12 05:09:58;;;;;;;35.25;17.25;;;;;;;8.02;59.32;100685.31;5034084;28;20030;-67
2021/04/12 05:12:39;;;;;;;38.95;15.32;;;;;;;7.77;60.75;100689.06;5029148;28;20029;-67
2021/04/12 05:15:26;;;;;;;35.40;15.90;;;;;;;7.69;61.57;100683.53;5053105;28;20058;-67
2021/04/12 05:18:14;;;;;;;22.20;12.20;;;;;;;7.62;62.00;100685.00;5035211;28;20125;-67
2021/04/12 05:20:51;;;;;;;26.83;12.45;;;;;;;7.72;61.82;100682.47;5047722;28;20029;-67
2021/04/12 05:23:26;;;;;;;24.35;11.32;;;;;;;7.90;61.85;100687.13;5047070;28;20030;-67
2021/04/12 05:26:03;;;;;;;25.20;12.18;;;;;;;8.26;60.66;100685.97;5048356;28;20025;-66
2021/04/12 05:28:28;;;;;;;26.02;11.77;;;;;;;8.50;60.57;100685.00;5062344;28;20033;-66
2021/04/12 05:31:23;;;;;;;21.73;12.15;;;;;;;8.64;59.82;100682.06;5048550;28;20064;-66
2021/04/12 05:34:10;;;;;;;28.10;13.02;;;;;;;8.96;58.22;100672.28;5033330;28;20378;-66
2021/04/12 05:36:45;;;;;;;24.38;11.90;;;;;;;9.52;57.77;100677.22;5048545;28;20045;-67
2021/04/12 05:39:31;;;;;;;25.92;12.15;;;;;;;9.90;55.75;100676.50;5048757;28;20096;-67
2021/04/12 05:42:02;;;;;;;22.15;12.25;;;;;;;10.32;54.74;100670.22;5048564;28;20038;-66
2021/04/12 05:45:14;;;;;;;20.95;10.95;;;;;;;10.85;52.47;100668.84;5048407;28;20033;-67
2021/04/12 05:47:51;;;;;;;19.23;10.35;;;;;;;11.14;47.96;100679.41;4993442;28;20235;-67
2021/04/12 05:50:34;;;;;;;15.30;8.40;;;;;;;11.45;43.10;100672.09;5048282;28;20322;-67
2021/04/12 05:53:23;;;;;;;13.65;7.28;;;;;;;11.74;42.08;100666.66;5048034;28;20096;-66
2021/04/12 05:56:22;;;;;;;16.50;8.98;;;;;;;12.10;41.73;100664.94;5048040;28;20033;-66
2021/04/12 05:59:07;;;;;;;17.92;8.88;;;;;;;12.13;41.59;100656.69;5048136;28;20030;-67
2021/04/12 06:01:32;;;;;;;17.02;8.52;;;;;;;12.38;39.57;100662.25;5048321;28;20063;-67
2021/04/12 06:04:10;;;;;;;12.05;7.55;;;;;;;12.45;38.59;100652.69;5048241;28;20075;-66
2021/04/12 06:07:06;;;;;;;16.65;8.40;;;;;;;12.60;39.11;100658.31;5046883;28;20091;-67
2021/04/12 06:10:07;;;;;;;15.68;8.52;;;;;;;13.03;38.87;100655.66;5034346;28;20125;-67
2021/04/12 06:12:48;;;;;;;25.33;9.18;;;;;;;13.10;39.20;100663.84;5035752;28;20065;-67
2021/04/12 06:15:41;;;;;;;18.65;9.48;;;;;;;13.02;39.49;100654.00;5047708;28;20434;-67
2021/04/12 06:18:28;;;;;;;14.48;8.48;;;;;;;13.36;38.62;100656.75;5045726;28;20054;-66
2021/04/12 06:21:11;;;;;;;23.17;10.88;;;;;;;13.38;37.47;100648.59;5048044;28;20025;-67
2021/04/12 06:24:08;;;;;;;15.88;8.95;;;;;;;13.66;36.74;100650.09;5048028;28;20287;-67
2021/04/12 06:27:05;;;;;;;21.13;9.07;;;;;;;13.96;36.96;100647.88;5047984;28;20330;-67
2021/04/12 06:30:08;;;;;;;24.42;10.15;;;;;;;13.98;35.73;100646.72;5045319;28;20029;-67
2021/04/12 06:33:05;;;;;;;19.00;8.88;;;;;;;13.94;35.62;100641.88;5024513;28;20203;-67
2021/04/12 06:35:49;;;;;;;21.38;9.68;;;;;;;14.12;35.97;100647.09;5025255;28;20033;-66
2021/04/12 06:38:48;;;;;;;16.25;9.02;;;;;;;14.53;35.21;100650.69;5030557;28;20044;-67
2021/04/12 06:41:45;;;;;;;19.38;9.70;;;;;;;14.87;34.33;100647.88;5026444;28;20057;-66
2021/04/12 06:44:41;;;;;;;24.60;9.27;;;;;;;15.15;34.60;100654.50;5043043;28;20021;-67
2021/04/12 06:47:31;;;;;;;19.65;10.45;;;;;;;15.37;35.04;100641.44;5026433;28;20148;-67
2021/04/12 06:50:51;;;;;;;27.08;11.95;;;;;;;14.95;36.44;100650.53;5023417;28;20045;-67
2021/04/12 06:53:54;;;;;;;26.50;11.32;;;;;;;15.31;35.76;100643.78;5001979;28;20046;-67
2021/04/12 06:56:22;;;;;;;24.48;11.27;;;;;;;15.65;35.67;100642.75;5029154;28;20037;-67
2021/04/12 06:59:08;;;;;;;24.83;11.93;;;;;;;15.33;37.12;100639.13;5025481;28;20038;-67
2021/04/12 07:02:27;;;;;;;23.90;10.65;;;;;;;15.28;36.59;100630.81;5014714;28;20093;-67
2021/04/12 07:05:28;;;;;;;20.88;11.40;;;;;;;15.03;36.77;100631.84;5023942;28;20033;-67
2021/04/12 07:08:15;;;;;;;22.52;11.10;;;;;;;15.09;37.37;100619.69;5026227;28;20112;-67
2021/04/12 07:11:17;;;;;;;20.58;10.10;;;;;;;15.23;36.93;100614.47;5048666;28;20026;-67
2021/04/12 07:13:55;;;;;;;29.00;12.20;;;;;;;15.77;35.92;100617.31;5030847;28;20334;-67
2021/04/12 07:16:51;;;;;;;28.38;11.52;;;;;;;15.98;35.97;100610.53;5024620;28;20033;-66
2021/04/12 07:19:55;;;;;;;24.70;11.07;;;;;;;16.15;35.78;100614.78;5043410;28;20060;-67
2021/04/12 07:22:52;;;;;;;25.45;11.00;;;;;;;16.23;34.72;100607.53;5015540;28;20119;-67
2021/04/12 07:25:59;;;;;;;16.63;9.15;;;;;;;16.37;34.78;100595.25;5024893;28;20029;-67
2021/04/12 07:28:55;;;;;;;16.08;9.07;;;;;;;16.50;34.82;100605.34;5024239;28;20360;-66
2021/04/12 07:31:35;;;;;;;17.70;9.20;;;;;;;16.65;34.38;100602.72;5042884;28;20041;-66
2021/04/12 07:34:17;;;;;;;22.73;9.57;;;;;;;16.53;34.67;100602.31;5041911;28;20051;-67
2021/04/12 07:37:16;;;;;;;15.50;8.60;;;;;;;16.78;34.12;100593.13;5040162;28;20046;-67
2021/04/12 07:40:15;;;;;;;18.00;9.02;;;;;;;16.76;35.21;100595.13;5042270;28;20056;-67
2021/04/12 07:42:59;;;;;;;18.23;8.63;;;;;;;17.01;34.42;100592.22;5041751;28;20278;-67
2021/04/12 07:45:42;;;;;;;18.42;8.30;;;;;;;17.42;33.41;100595.28;5043730;28;20035;-67
2021/04/12 07:48:17;;;;;;;12.98;7.43;;;;;;;17.42;33.31;100582.72;5029159;28;20034;-67
2021/04/12 07:50:42;;;;;;;;;;;;;;;17.26;32.55;100582.06;5030165;28;20017;-67
2021/04/12 07:53:26;;;;;;;13.10;6.43;;;;;;;17.35;31.92;100573.75;5043629;28;19924;-67
2021/04/12 07:56:21;;;;;;;14.52;7.45;;;;;;;16.85;33.92;100569.97;5024752;28;20258;-67
2021/04/12 07:59:05;;;;;;;;;;;;;;;16.77;32.76;100559.34;5025765;28;20057;-67
2021/04/12 08:02:04;;;;;;;13.45;6.70;;;;;;;16.49;33.64;100550.19;5022390;28;19917;-67
2021/04/12 08:04:48;;;;;;;14.65;6.70;;;;;;;16.23;34.63;100545.25;5024092;28;20042;-67
2021/04/12 08:07:50;;;;;;;13.60;6.70;;;;;;;16.40;34.23;100549.44;5032281;28;20048;-67
2021/04/12 08:10:53;;;;;;;16.77;10.23;;;;;;;16.52;35.38;100547.16;5038671;28;20018;-67
2021/04/12 08:13:40;;;;;;;13.57;7.10;;;;;;;16.68;35.06;100535.56;5023891;28;20029;-67
2021/04/12 08:16:36;;;;;;;10.63;6.40;;;;;;;16.68;33.28;100539.06;5023481;28;20263;-67
2021/04/12 08:19:59;;;;;;;11.95;6.20;;;;;;;16.89;33.26;100524.97;5021763;28;20102;-67
2021/04/12 08:22:33;;;;;;;13.27;6.55;;;;;;;17.26;33.08;100521.34;5018645;28;20104;-67
2021/04/12 08:24:58;;;;;;;15.10;6.72;;;;;;;17.05;32.73;100524.78;5018468;28;20379;-67
2021/04/12 08:28:18;;;;;;;13.00;6.90;;;;;;;17.43;31.82;100520.13;5033516;28;20087;-67
2021/04/12 08:31:52;;;;;;;9.38;6.80;;;;;;;17.45;31.59;100519.94;4999875;28;20045;-67
2021/04/12 08:34:20;;;;;;;8.65;6.07;;;;;;;17.73;31.15;100518.25;4976703;28;20039;-66
2021/04/12 08:37:12;;;;;;;10.40;5.88;;;;;;;17.28;31.01;100515.81;4981245;28;20046;-67
2021/04/12 08:40:21;;;;;;;12.80;6.28;;;;;;;17.31;30.55;100504.72;5017333;28;20053;-67
2021/04/12 08:42:56;;;;;;;11.30;6.25;;;;;;;17.28;31.20;100495.22;5035286;28;20056;-67
2021/04/12 08:46:19;;;;;;;12.98;6.13;;;;;;;17.47;32.68;100488.44;5040894;28;20029;-67
2021/04/12 08:49:07;;;;;;;12.38;6.30;;;;;;;17.87;30.81;100476.34;4983047;28;20190;-67
2021/04/12 08:52:05;;;;;;;10.98;5.82;;;;;;;18.01;30.64;100475.47;4965077;28;20054;-67
2021/04/12 08:55:08;;;;;;;12.30;6.07;;;;;;;18.18;29.70;100465.28;5017022;28;20113;-67
2021/04/12 08:57:54;;;;;;;14.77;7.10;;;;;;;18.24;29.39;100469.06;5022842;28;20097;-67
2021/04/12 09:00:54;;;;;;;10.75;5.88;;;;;;;18.15;29.83;100460.31;5037582;28;20032;-67
2021/04/12 09:03:28;;;;;;;10.43;6.05;;;;;;;18.12;29.71;100458.03;5007009;28;20087;-67
2021/04/12 09:06:31;;;;;;;12.82;5.78;;;;;;;17.96;30.23;100456.44;5039102;28;20106;-67
2021/04/12 09:09:21;;;;;;;17.55;7.07;;;;;;;17.97;29.85;100450.06;5040544;28;20227;-67
2021/04/12 09:12:05;;;;;;;11.25;5.65;;;;;;;17.95;30.62;100449.44;5041557;28;20060;-67
2021/04/12 09:14:39;;;;;;;10.98;5.95;;;;;;;17.76;30.84;100453.59;5039880;28;20036;-67
2021/04/12 09:17:16;;;;;;;;;;;;;;;17.79;30.40;100455.06;5022762;28;20223;-66
2021/04/12 09:20:06;;;;;;;10.32;5.95;;;;;;;18.01;29.86;100442.47;5040428;28;19920;-67
2021/04/12 09:23:09;;;;;;;12.70;5.45;;;;;;;17.63;30.78;100442.69;5038124;28;20041;-67
2021/04/12 09:25:46;;;;;;;16.70;6.57;;;;;;;17.60;30.60;100442.22;5041941;28;20029;-67
2021/04/12 09:28:51;;;;;;;14.68;6.15;;;;;;;17.72;30.89;100435.41;5023191;28;20034;-67
2021/04/12 09:31:30;;;;;;;10.15;5.40;;;;;;;17.43;30.83;100423.75;5038498;28;20057;-67
2021/04/12 09:34:26;;;;;;;8.30;5.18;;;;;;;17.62;30.91;100422.28;5023040;28;20439;-67
2021/04/12 09:37:02;;;;;;;12.73;5.35;;;;;;;17.90;32.26;100418.88;5024821;28;20284;-67
2021/04/12 09:39:33;;;;;;;14.32;5.53;;;;;;;18.05;32.12;100409.75;5041899;28;20064;-68
2021/04/12 09:42:09;;;;;;;12.13;5.50;;;;;;;18.21;30.75;100402.44;5026350;28;20072;-67
2021/04/12 09:45:08;;;;;;;11.25;5.28;;;;;;;18.14;31.52;100400.53;5021867;28;20069;-67
2021/04/12 09:47:46;;;;;;;10.43;5.75;;;;;;;17.93;31.04;100381.81;5041098;28;20042;-67
2021/04/12 09:50:56;;;;;;;10.52;6.00;;;;;;;18.09;31.38;100386.06;5031375;28;20026;-67
2021/04/12 09:53:59;;;;;;;10.27;5.20;;;;;;;17.74;31.31;100386.00;5022691;28;20038;-68
2021/04/12 09:56:49;;;;;;;12.93;5.45;;;;;;;17.74;32.25;100375.28;5022005;28;20243;-68
2021/04/12 09:59:34;;;;;;;14.43;5.32;;;;;;;17.65;33.85;100372.88;5033516;28;20033;-67
2021/04/12 10:02:18;;;;;;;12.52;6.10;;;;;;;17.88;33.42;100364.66;5036436;28;20098;-67
2021/04/12 10:05:05;;;;;;;11.68;5.45;;;;;;;18.12;32.38;100358.88;5022277;28;20308;-67
2021/04/12 10:08:02;;;;;;;13.20;5.00;;;;;;;18.13;33.23;100352.47;5043939;28;20334;-67
2021/04/12 10:10:52;;;;;;;13.90;5.97;;;;;;;18.26;33.26;100346.38;5043525;28;20364;-68
2021/04/12 10:13:42;;;;;;;9.15;5.55;;;;;;;18.02;32.37;100347.66;5044638;28;20041;-67
2021/04/12 10:16:14;;;;;;;10.95;5.43;;;;;;;17.99;34.39;100338.16;5027091;28;20037;-67
2021/04/12 10:18:51;;;;;;;12.50;5.70;;;;;;;18.08;33.06;100330.81;5033540;28;20029;-67
2021/04/12 10:21:18;;;;;;;13.77;5.60;;;;;;;18.28;32.66;100328.25;5045351;28;20238;-67
2021/04/12 10:23:53;;;;;;;12.77;6.18;;;;;;;18.46;32.17;100318.63;5045051;28;20223;-67
2021/04/12 10:26:24;;;;;;;13.90;5.25;;;;;;;18.59;33.01;100319.72;5044916;28;20084;-67
2021/04/12 10:29:17;;;;;;;8.95;5.55;;;;;;;18.56;32.40;100315.59;5043979;28;20057;-68
2021/04/12 10:31:54;;;;;;;13.27;6.20;;;;;;;18.19;32.10;100314.16;5039784;28;20048;-67
2021/04/12 10:34:29;;;;;;;10.98;6.03;;;;;;;18.21;32.40;100313.97;5042814;28;20025;-67
2021/04/12 10:37:09;;;;;;;8.90;5.45;;;;;;;18.13;32.70;100310.44;5043650;28;20037;-67
2021/04/12 10:40:00;;;;;;;11.85;4.78;;;;;;;18.12;33.18;100307.94;5041751;28;20033;-67
2021/04/12 10:42:56;;;;;;;12.00;5.60;;;;;;;18.38;33.62;100309.94;5043751;28;20025;-67
2021/04/12 10:45:29;;;;;;;14.90;7.60;;;;;;;18.27;32.81;100291.72;5044077;28;20079;-67
2021/04/12 10:47:57;;;;;;;15.88;7.40;;;;;;;18.57;31.32;100311.88;5026671;28;20072;-67
2021/04/12 10:50:32;;;;;;;13.95;8.00;;;;;;;18.79;32.58;100302.75;5025972;28;20212;-67
2021/04/12 10:52:57;;;;;;;14.10;8.25;;;;;;;18.52;32.10;100300.94;5022940;28;20041;-67
2021/04/12 10:55:34;;;;;;;15.50;7.78;;;;;;;18.14;32.89;100290.63;5026290;28;20034;-68
2021/04/12 10:58:11;;;;;;;17.00;8.38;;;;;;;18.35;32.82;100291.56;5035981;28;20035;-67
2021/04/12 11:00:44;;;;;;;15.32;8.93;;;;;;;18.32;32.98;100283.94;5043716;28;20040;-67
2021/04/12 11:03:36;;;;;;;14.27;8.20;;;;;;;18.45;32.62;100287.50;5031888;28;20343;-67
2021/04/12 11:06:10;;;;;;;15.10;6.65;;;;;;;18.39;32.83;100280.25;5017071;28;20349;-67
2021/04/12 11:08:52;;;;;;;11.30;6.35;;;;;;;18.48;33.64;100283.59;5025416;28;20263;-67
2021/04/12 11:11:20;;;;;;;11.93;6.18;;;;;;;18.31;33.66;100290.31;5029822;28;20025;-67
2021/04/12 11:14:00;;;;;;;13.98;7.00;;;;;;;18.30;32.79;100288.66;5044164;28;20072;-67
2021/04/12 11:16:38;;;;;;;14.80;6.55;;;;;;;18.43;32.57;100288.72;5036371;28;20026;-67
2021/04/12 11:19:17;;;;;;;16.80;6.20;;;;;;;18.32;34.23;100286.59;5024280;28;20042;-67
2021/04/12 11:21:42;;;;;;;9.77;6.03;;;;;;;18.41;34.35;100282.72;5026204;28;20094;-67
2021/04/12 11:24:16;;;;;;;15.85;5.75;;;;;;;18.51;33.91;100278.66;5032562;28;20037;-68
2021/04/12 11:27:12;;;;;;;15.57;6.03;;;;;;;18.64;32.46;100274.38;5042641;28;20033;-67
2021/04/12 11:29:43;;;;;;;8.90;5.07;;;;;;;18.75;32.67;100266.59;5024912;28;20045;-67
2021/04/12 11:32:30;;;;;;;13.85;7.90;;;;;;;18.59;32.41;100258.88;5023992;28;20352;-67
2021/04/12 11:35:04;;;;;;;11.95;6.35;;;;;;;18.67;33.83;100264.09;5024405;28;20104;-67
2021/04/12 11:37:46;;;;;;;12.13;7.35;;;;;;;18.72;32.23;100252.75;5024912;28;20033;-67
2021/04/12 11:40:29;;;;;;;10.65;5.13;;;;;;;18.59;32.35;100255.34;5024939;28;20061;-67
2021/04/12 11:43:02;;;;;;;12.00;7.05;;;;;;;18.52;32.68;100248.13;5024091;28;20223;-67
2021/04/12 11:45:53;;;;;;;10.75;6.53;;;;;;;18.61;34.23;100240.75;5024833;28;20065;-67
2021/04/12 11:48:43;;;;;;;14.13;5.53;;;;;;;18.63;33.91;100233.31;5037557;28;20243;-67
2021/04/12 11:51:45;;;;;;;12.13;5.97;;;;;;;18.73;32.40;100230.28;5041856;28;20037;-67
2021/04/12 11:54:13;;;;;;;15.50;5.78;;;;;;;18.54;32.46;100222.94;5029329;28;20133;-67
2021/04/12 11:56:56;;;;;;;9.77;5.50;;;;;;;18.59;32.81;100228.53;5043668;28;20045;-67
2021/04/12 11:59:47;;;;;;;8.07;5.03;;;;;;;18.64;33.15;100218.06;5042123;28;20033;-68
2021/04/12 12:02:15;;;;;;;12.85;5.03;;;;;;;18.68;31.73;100214.78;5042396;28;20041;-67
2021/04/12 12:04:46;;;;;;;12.30;5.20;;;;;;;18.73;31.22;100212.34;5042095;28;20358;-67
2021/04/12 12:07:35;;;;;;;7.97;4.15;;;;;;;18.81;31.32;100200.59;5043375;28;20033;-67
2021/04/12 12:10:06;;;;;;;10.35;5.57;;;;;;;18.95;32.13;100198.75;5041611;28;20072;-67
2021/04/12 12:12:41;;;;;;;14.30;5.30;;;;;;;18.98;31.67;100188.41;5042926;28;20036;-67
2021/04/12 12:15:38;;;;;;;9.38;5.07;;;;;;;19.07;29.80;100181.00;5027391;28;20108;-67
2021/04/12 12:18:12;;;;;;;10.13;5.10;;;;;;;19.06;31.65;100182.84;5032273;28;20045;-67
2021/04/12 12:20:46;;;;;;;12.05;5.30;;;;;;;18.93;29.95;100182.00;5033048;28;20029;-68
2021/04/12 12:23:46;;;;;;;9.77;5.50;;;;;;;19.04;30.87;100176.84;5034333;28;20049;-67
2021/04/12 12:26:38;;;;;;;10.32;5.60;;;;;;;19.01;31.64;100176.44;5041924;28;20044;-67
2021/04/12 12:29:12;;;;;;;12.15;6.13;;;;;;;18.83;31.04;100170.88;5023254;28;20124;-67
2021/04/12 12:32:04;;;;;;;13.65;6.05;;;;;;;18.97;32.67;100164.47;5042166;28;20045;-67
2021/04/12 12:34:59;;;;;;;12.63;5.88;;;;;;;18.98;32.54;100163.44;5019685;28;20041;-68
2021/04/12 12:37:30;;;;;;;10.63;5.70;;;;;;;19.05;31.79;100151.66;5002857;28;20270;-67
2021/04/12 12:39:59;;;;;;;10.48;5.22;;;;;;;19.16;31.94;100149.41;5037670;28;20076;-67
2021/04/12 12:42:39;;;;;;;8.10;5.22;;;;;;;19.19;32.61;100141.75;5042378;28;20029;-67
2021/04/12 12:45:29;;;;;;;8.68;5.38;;;;;;;19.04;32.25;100138.47;5027536;28;20108;-67